Time;durP1;ratioP1;P1;durP2;ratioP2;P2;SDS_P1;SDS_P2;PMS_P1;PMS_P2;Temp;Humidity;BMP_temperature;BMP_pressure;BME280_temperature;BME280_humidity;BME280_pressure;Samples;Min_cycle;Max_cycle;Signal;HPM_P1;HPM_P2
2022/10/18 00:01:09;;;;;;;14.43;10.80;;;;;;;-145.18;100.00;46664.31;5071563;28;20050;-69
2022/10/18 00:03:36;;;;;;;96.73;10.77;;;;;;;-145.18;100.00;46668.22;5070070;28;20163;-69
2022/10/18 00:06:02;;;;;;;37.03;11.00;;;;;;;-145.18;100.00;46666.25;5071689;28;20481;-69
2022/10/18 00:08:28;;;;;;;13.47;9.37;;;;;;;-145.18;100.00;46677.97;5071480;28;20032;-69
2022/10/18 00:10:53;;;;;;;146.30;11.30;;;;;;;-145.18;100.00;46664.31;5071516;28;20430;-69
2022/10/18 00:13:20;;;;;;;141.63;12.47;;;;;;;-145.18;100.00;46664.31;5071046;28;20040;-69
2022/10/18 00:15:54;;;;;;;362.90;16.67;;;;;;;-145.18;100.00;46666.25;5071559;28;20500;-69
2022/10/18 00:18:20;;;;;;;27.47;10.37;;;;;;;-145.18;100.00;46670.16;5071122;28;20029;-69
2022/10/18 00:20:59;;;;;;;16.20;11.20;;;;;;;-145.18;100.00;46668.22;5071734;28;20056;-69
2022/10/18 00:23:25;;;;;;;13.77;9.37;;;;;;;-145.18;100.00;46664.31;5069594;28;20482;-69
2022/10/18 00:25:58;;;;;;;10.87;8.30;;;;;;;-145.18;100.00;46670.16;5071538;28;20044;-69
2022/10/18 00:28:24;;;;;;;11.40;7.73;;;;;;;-145.18;100.00;46668.22;5071071;28;20020;-69
2022/10/18 00:30:49;;;;;;;11.27;9.23;;;;;;;-145.18;100.00;46662.34;5071379;28;20706;-69
2022/10/18 00:33:14;;;;;;;26.63;8.30;;;;;;;-145.18;100.00;46664.31;5069369;28;20041;-69
2022/10/18 00:35:39;;;;;;;35.00;7.60;;;;;;;-145.18;100.00;46658.44;5071101;28;20076;-69
2022/10/18 00:38:05;;;;;;;34.97;8.17;;;;;;;-145.18;100.00;46668.22;5070444;28;20037;-69
2022/10/18 00:40:30;;;;;;;29.07;7.47;;;;;;;-145.18;100.00;46662.34;5070889;28;20072;-69
2022/10/18 00:42:55;;;;;;;19.27;7.73;;;;;;;-145.18;100.00;46672.13;5071064;28;20071;-69
2022/10/18 00:45:23;;;;;;;20.07;9.63;;;;;;;-145.18;100.00;46670.16;5070980;28;20443;-69
2022/10/18 00:47:54;;;;;;;47.07;10.40;;;;;;;-145.18;100.00;46662.34;5070478;28;20033;-69
2022/10/18 00:50:21;;;;;;;75.67;9.73;;;;;;;-145.18;100.00;46664.31;5070624;28;20028;-69
2022/10/18 00:52:54;;;;;;;133.73;12.93;;;;;;;-145.18;100.00;46670.16;5070810;28;20056;-69
2022/10/18 00:55:20;;;;;;;174.63;12.27;;;;;;;-145.18;100.00;46668.22;5070589;28;20062;-69
2022/10/18 00:57:46;;;;;;;114.17;10.63;;;;;;;-145.18;100.00;46666.25;5070350;28;20036;-68
2022/10/18 01:00:12;;;;;;;46.60;9.37;;;;;;;-145.18;100.00;46664.31;5070854;28;20374;-69
2022/10/18 01:02:39;;;;;;;104.03;9.80;;;;;;;-145.18;100.00;46656.50;5069973;28;20334;-69
2022/10/18 01:05:06;;;;;;;75.67;8.37;;;;;;;-145.18;100.00;46660.41;5070895;28;20477;-69
2022/10/18 01:07:50;;;;;;;39.67;9.37;;;;;;;-145.18;100.00;46662.34;5069832;28;20028;-69
2022/10/18 01:10:15;;;;;;;16.13;8.27;;;;;;;-145.18;100.00;46664.31;5070773;28;20043;-70
2022/10/18 01:13:02;;;;;;;9.33;7.63;;;;;;;-145.18;100.00;46664.31;5070134;28;20390;-69
2022/10/18 01:15:32;;;;;;;10.57;7.00;;;;;;;-145.18;100.00;46664.31;5070563;28;20078;-69
2022/10/18 01:18:22;;;;;;;9.93;7.13;;;;;;;-145.18;100.00;46660.41;5069848;28;20032;-69
2022/10/18 01:21:02;;;;;;;55.10;8.47;;;;;;;-145.18;100.00;46660.41;5070710;28;20500;-69
2022/10/18 01:23:44;;;;;;;8.90;7.33;;;;;;;-145.18;100.00;46662.34;5069928;28;20032;-69
2022/10/18 01:26:31;;;;;;;68.33;9.00;;;;;;;-145.18;100.00;46660.41;5070431;28;20067;-69
2022/10/18 01:29:15;;;;;;;86.73;10.03;;;;;;;-145.18;100.00;46662.34;5070135;28;20032;-69
2022/10/18 01:31:57;;;;;;;39.77;7.13;;;;;;;-145.18;100.00;46666.25;5070022;28;20118;-69
2022/10/18 01:34:24;;;;;;;18.60;7.03;;;;;;;-145.18;100.00;46662.34;5069986;28;20389;-69
2022/10/18 01:36:54;;;;;;;56.57;7.53;;;;;;;-145.18;100.00;46672.13;5070158;28;20044;-69
2022/10/18 01:39:28;;;;;;;63.43;5.97;;;;;;;-145.18;100.00;46666.25;5070097;28;20493;-70
2022/10/18 01:41:57;;;;;;;56.47;5.73;;;;;;;-145.18;100.00;46664.31;5070143;28;20493;-69
2022/10/18 01:44:25;;;;;;;102.33;6.87;;;;;;;-145.18;100.00;46658.44;5070118;28;20043;-69
2022/10/18 01:46:53;;;;;;;29.40;7.07;;;;;;;-145.18;100.00;46666.25;5070180;28;20033;-69
2022/10/18 01:49:19;;;;;;;30.63;7.23;;;;;;;-145.18;100.00;46664.31;5070380;28;20498;-69
2022/10/18 01:51:45;;;;;;;20.63;7.73;;;;;;;-145.18;100.00;46664.31;5070108;28;20029;-69
2022/10/18 01:54:14;;;;;;;36.67;8.00;;;;;;;-145.18;100.00;46670.16;5070009;28;20451;-69
2022/10/18 01:56:51;;;;;;;38.57;9.13;;;;;;;-145.18;100.00;46664.31;5069507;28;20028;-69
2022/10/18 01:59:35;;;;;;;43.47;9.03;;;;;;;-145.18;100.00;46660.41;5070236;28;20028;-69
2022/10/18 02:02:28;;;;;;;55.23;9.40;;;;;;;-145.18;100.00;46660.41;5069871;28;20079;-69
2022/10/18 02:05:18;;;;;;;35.20;8.73;;;;;;;-145.18;100.00;46664.31;5069960;28;20056;-69
2022/10/18 02:07:50;;;;;;;71.80;9.80;;;;;;;-145.18;100.00;46668.22;5069593;28;20036;-69
2022/10/18 02:10:43;;;;;;;44.43;8.77;;;;;;;-145.18;100.00;46660.41;5070203;28;20039;-69
2022/10/18 02:13:11;;;;;;;41.80;6.97;;;;;;;-145.18;100.00;46660.41;5068974;28;20432;-69
2022/10/18 02:15:40;;;;;;;13.80;6.80;;;;;;;-145.18;100.00;46664.31;5069893;28;20074;-69
2022/10/18 02:18:13;;;;;;;20.00;9.27;;;;;;;-145.18;100.00;46664.31;5069700;28;20027;-69
2022/10/18 02:20:38;;;;;;;13.57;7.83;;;;;;;-145.18;100.00;46660.41;5069937;28;20075;-69
2022/10/18 02:23:07;;;;;;;12.07;7.70;;;;;;;-145.18;100.00;46658.44;5069377;28;20434;-69
2022/10/18 02:25:34;;;;;;;22.57;8.33;;;;;;;-145.18;100.00;46660.41;5069872;28;20032;-69
2022/10/18 02:28:02;;;;;;;71.33;8.77;;;;;;;-145.18;100.00;46662.34;5069536;28;20493;-69
2022/10/18 02:30:39;;;;;;;66.60;8.57;;;;;;;-145.18;100.00;46660.41;5071755;28;20119;-69
2022/10/18 02:33:42;;;;;;;47.47;8.07;;;;;;;-145.18;100.00;46662.34;5073085;28;20032;-69
2022/10/18 02:36:17;;;;;;;55.60;9.20;;;;;;;-145.18;100.00;46662.34;5073468;28;20490;-69
2022/10/18 02:38:45;;;;;;;47.73;8.73;;;;;;;-145.18;100.00;46662.34;5072996;28;20078;-69
2022/10/18 02:41:10;;;;;;;16.83;7.30;;;;;;;-145.18;100.00;46664.31;5073661;28;20033;-69
2022/10/18 02:43:36;;;;;;;76.03;7.80;;;;;;;-145.18;100.00;46660.41;5072767;28;20059;-69
2022/10/18 02:46:02;;;;;;;38.57;7.90;;;;;;;-145.18;100.00;46664.31;5073122;28;20104;-69
2022/10/18 02:48:27;;;;;;;32.83;6.90;;;;;;;-145.18;100.00;46664.31;5072621;28;20139;-69
2022/10/18 02:50:52;;;;;;;66.50;7.90;;;;;;;-145.18;100.00;46664.31;5072032;28;20032;-69
2022/10/18 02:53:18;;;;;;;126.97;10.57;;;;;;;-145.18;100.00;46664.31;5072688;28;20039;-69
2022/10/18 02:55:43;;;;;;;103.83;9.83;;;;;;;-145.18;100.00;46666.25;5073092;28;20482;-69
2022/10/18 02:58:08;;;;;;;121.60;10.57;;;;;;;-145.18;100.00;46662.34;5072803;28;20035;-69
2022/10/18 07:23:52;;;;;;;120.87;8.23;;;;;;;-145.18;100.00;46679.94;4988868;28;21520;-70
2022/10/18 07:27:37;;;;;;;107.47;9.50;;;;;;;-145.18;100.00;46670.16;4973411;28;20050;-70
2022/10/18 07:31:22;;;;;;;59.43;8.03;;;;;;;-145.18;100.00;46672.13;4965663;28;20039;-69
2022/10/18 07:35:11;;;;;;;39.87;9.53;;;;;;;-145.18;100.00;46664.31;4971281;28;20051;-70
2022/10/18 07:38:58;;;;;;;22.23;9.47;;;;;;;-145.18;100.00;46662.34;4972728;28;20119;-69
2022/10/18 07:42:43;;;;;;;25.43;9.73;;;;;;;-145.18;100.00;46662.34;4973115;28;20498;-69
2022/10/18 07:53:38;;;;;;;29.77;10.10;;;;;;;-145.18;100.00;46656.50;4953196;29;20051;-70
2022/10/18 07:57:23;;;;;;;20.27;9.80;;;;;;;-145.18;100.00;46656.50;4972019;28;20054;-70
2022/10/18 08:01:09;;;;;;;19.93;9.40;;;;;;;-145.18;100.00;46656.50;4957193;28;20569;-70
2022/10/18 08:04:55;;;;;;;22.70;9.47;;;;;;;-145.18;100.00;46652.59;4972455;28;20078;-70
